createdAt,value
2018-05-29T00:02:19.584Z,20.80
2018-05-29T00:04:48.975Z,20.80
2018-05-29T00:07:18.505Z,20.70
2018-05-29T00:12:50.533Z,20.60
2018-05-29T00:15:22.096Z,20.50
2018-05-29T00:17:49.714Z,20.50
2018-05-29T00:20:22.318Z,20.40
2018-05-29T00:22:54.597Z,20.40
2018-05-29T00:25:22.997Z,20.40
2018-05-29T00:27:52.450Z,20.40
2018-05-29T00:30:20.819Z,20.30
2018-05-29T00:32:51.316Z,20.30
2018-05-29T00:35:21.267Z,20.20
2018-05-29T00:37:49.821Z,20.20
2018-05-29T00:40:20.011Z,20.20
2018-05-29T00:42:49.649Z,20.10
2018-05-29T00:45:18.555Z,20.10
2018-05-29T00:47:51.034Z,20.10
2018-05-29T00:50:21.340Z,20.10
2018-05-29T00:52:51.864Z,20.10
2018-05-29T00:55:34.214Z,20.00
2018-05-29T00:58:04.874Z,20.00
2018-05-29T01:00:40.662Z,20.00
2018-05-29T01:03:10.062Z,20.00
2018-05-29T01:05:40.810Z,19.90
2018-05-29T01:08:11.047Z,19.90
2018-05-29T01:10:40.705Z,19.90
2018-05-29T01:13:10.124Z,19.80
2018-05-29T01:15:41.608Z,19.80
2018-05-29T01:20:55.780Z,19.70
2018-05-29T01:23:24.624Z,19.70
2018-05-29T01:25:53.196Z,19.60
2018-05-29T01:28:21.591Z,19.60
2018-05-29T01:30:49.988Z,19.60
2018-05-29T01:33:19.812Z,19.60
2018-05-29T01:35:55.832Z,19.60
2018-05-29T01:38:27.142Z,19.50
2018-05-29T01:43:33.573Z,19.50
2018-05-29T01:46:01.364Z,19.50
2018-05-29T01:48:29.095Z,19.50
2018-05-29T01:51:01.179Z,19.40
2018-05-29T01:53:32.021Z,19.40
2018-05-29T01:56:01.483Z,19.30
2018-05-29T01:58:32.094Z,19.30
2018-05-29T02:01:02.520Z,19.20
2018-05-29T02:03:32.020Z,19.20
2018-05-29T02:06:03.372Z,19.20
2018-05-29T02:08:33.220Z,19.10
2018-05-29T02:11:04.911Z,19.10
2018-05-29T02:13:37.469Z,19.10
2018-05-29T02:16:06.130Z,19.10
2018-05-29T02:18:38.301Z,19.10
2018-05-29T02:21:11.294Z,19.10
2018-05-29T02:23:39.674Z,19.10
2018-05-29T02:26:08.557Z,19.00
2018-05-29T02:28:49.371Z,19.00
2018-05-29T02:31:17.656Z,19.00
2018-05-29T02:33:48.615Z,19.00
2018-05-29T02:36:22.462Z,18.90
2018-05-29T02:38:58.845Z,18.80
2018-05-29T02:41:29.666Z,18.80
2018-05-29T02:49:53.171Z,18.80
2018-05-29T02:52:22.614Z,18.70
2018-05-29T02:54:51.769Z,18.70
2018-05-29T02:57:20.574Z,18.70
2018-05-29T02:59:53.254Z,18.70
2018-05-29T03:02:26.922Z,18.60
2018-05-29T03:04:55.583Z,18.60
2018-05-29T03:07:40.425Z,18.60
2018-05-29T03:10:14.895Z,18.50
2018-05-29T03:12:44.501Z,18.50
2018-05-29T03:15:14.712Z,18.50
2018-05-29T03:17:43.778Z,18.50
2018-05-29T03:20:14.086Z,18.40
2018-05-29T03:22:47.380Z,18.40
2018-05-29T03:25:16.533Z,18.40
2018-05-29T03:27:46.811Z,18.30
2018-05-29T03:30:15.388Z,18.30
2018-05-29T03:32:43.603Z,18.30
2018-05-29T03:35:21.531Z,18.20
2018-05-29T03:37:50.065Z,18.20
2018-05-29T03:40:20.392Z,18.20
2018-05-29T03:42:48.908Z,18.10
2018-05-29T03:45:17.493Z,18.10
2018-05-29T03:47:45.177Z,18.10
2018-05-29T03:50:17.279Z,18.10
2018-05-29T04:09:53.404Z,18.10
2018-05-29T04:12:21.373Z,18.10
2018-05-29T04:14:49.091Z,18.10
2018-05-29T04:17:17.642Z,18.20
2018-05-29T04:36:52.813Z,18.20
2018-05-29T04:39:28.513Z,18.30
2018-05-29T04:41:58.310Z,18.30
2018-05-29T04:44:28.149Z,18.30
2018-05-29T04:46:55.848Z,18.40
2018-05-29T05:06:31.261Z,18.70
2018-05-29T05:08:59.205Z,18.80
2018-05-29T05:11:31.236Z,18.90
2018-05-29T05:14:00.184Z,19.00
2018-05-29T05:22:23.842Z,19.30
2018-05-29T05:24:56.581Z,19.40
2018-05-29T05:27:27.828Z,19.40
2018-05-29T05:29:59.201Z,19.50
2018-05-29T05:35:19.834Z,19.60
2018-05-29T05:37:50.841Z,19.70
2018-05-29T05:40:22.044Z,19.70
2018-05-29T05:42:52.320Z,19.80
2018-05-29T05:45:20.218Z,19.90
2018-05-29T05:47:53.680Z,20.10
2018-05-29T06:07:54.406Z,20.50
2018-05-29T06:10:21.998Z,20.60
2018-05-29T06:12:49.525Z,20.60
2018-05-29T06:15:17.149Z,20.60
2018-05-29T06:17:44.768Z,20.60
2018-05-29T06:20:12.365Z,20.70
2018-05-29T06:22:40.929Z,20.70
2018-05-29T06:25:09.145Z,20.70
2018-05-29T06:27:36.683Z,20.80
2018-05-29T06:30:05.113Z,21.00
2018-05-29T06:32:37.036Z,21.00
2018-05-29T06:35:06.403Z,21.10
2018-05-29T06:37:34.065Z,21.20
2018-05-29T06:40:20.286Z,21.40
2018-05-29T06:42:49.185Z,21.40
2018-05-29T06:45:16.953Z,21.50
2018-05-29T06:47:44.669Z,21.60
2018-05-29T06:50:12.756Z,21.70
2018-05-29T06:52:43.138Z,21.80
2018-05-29T06:55:12.058Z,22.00
2018-05-29T07:00:35.930Z,22.20
2018-05-29T07:03:03.616Z,22.30
2018-05-29T07:05:33.659Z,22.30
2018-05-29T07:08:03.475Z,22.50
2018-05-29T07:24:59.568Z,23.30
2018-05-29T09:01:30.869Z,27.10
2018-05-29T09:10:06.677Z,27.30
2018-05-29T09:15:27.529Z,27.40
2018-05-29T09:17:59.864Z,27.50
2018-05-29T09:34:56.202Z,28.00
2018-05-29T09:37:32.507Z,28.00
2018-05-29T09:58:17.596Z,28.50
2018-05-29T10:00:45.275Z,28.60
2018-05-29T10:03:12.812Z,28.70
2018-05-29T10:05:41.284Z,28.80
2018-05-29T10:31:09.354Z,28.40
2018-05-29T10:50:54.685Z,29.50
2018-05-29T10:53:26.503Z,29.80
2018-05-29T10:55:54.120Z,30.00
2018-05-29T10:58:21.924Z,30.20
2018-05-29T11:21:09.745Z,31.00
2018-05-29T11:23:37.546Z,31.10
2018-05-29T11:26:05.094Z,31.20
2018-05-29T11:28:32.635Z,31.30
2018-05-29T11:31:17.763Z,31.40
2018-05-29T11:45:17.087Z,31.80
2018-05-29T11:47:56.600Z,31.80
2018-05-29T12:18:30.942Z,32.50
2018-05-29T12:45:14.953Z,33.00
2018-05-29T12:47:51.293Z,32.90
2018-05-29T12:53:24.808Z,32.60
2018-05-29T13:29:05.407Z,33.60
2018-05-29T13:31:34.389Z,33.80
2018-05-29T13:34:02.024Z,33.90
2018-05-29T13:39:22.598Z,34.20
2018-05-29T13:41:53.429Z,34.20
2018-05-29T14:05:41.367Z,34.40
2018-05-29T14:08:11.245Z,32.80
2018-05-29T14:10:43.092Z,32.80
2018-05-29T14:30:29.100Z,27.20
2018-05-29T14:33:00.760Z,26.80
2018-05-29T14:35:28.470Z,26.60
2018-05-29T14:46:44.204Z,26.30
2018-05-29T14:49:13.676Z,26.30
2018-05-29T15:08:56.526Z,24.60
2018-05-29T15:11:25.041Z,24.50
2018-05-29T15:13:52.671Z,24.40
2018-05-29T15:16:32.146Z,24.40
2018-05-29T16:22:29.289Z,22.20
2018-05-29T16:24:56.859Z,22.10
2018-05-29T16:28:08.346Z,22.00
2018-05-29T17:09:27.044Z,21.50
2018-05-29T17:11:57.792Z,21.60
2018-05-29T17:20:41.822Z,21.80
2018-05-29T17:23:28.876Z,21.80
2018-05-29T17:46:24.130Z,21.80
2018-05-29T17:49:00.822Z,21.80
2018-05-29T17:51:45.465Z,21.70
2018-05-29T17:54:15.778Z,21.70
2018-05-29T17:56:56.651Z,21.80
2018-05-29T17:59:26.818Z,21.80
2018-05-29T18:31:26.175Z,21.70
2018-05-29T20:16:07.338Z,20.80
2018-05-29T20:18:38.590Z,20.70
2018-05-29T20:21:11.284Z,20.70
2018-05-29T20:23:43.196Z,20.70
2018-05-29T20:29:30.474Z,20.70
2018-05-29T20:31:59.317Z,20.60
2018-05-29T20:34:40.756Z,20.60
2018-05-29T20:42:49.644Z,20.60
2018-05-29T20:48:28.743Z,20.50
2018-05-29T20:50:58.943Z,20.50
2018-05-29T20:53:39.924Z,20.50
2018-05-29T20:58:45.549Z,20.50
2018-05-29T21:01:19.066Z,20.50
2018-05-29T21:03:53.867Z,20.40
2018-05-29T21:06:23.654Z,20.40
2018-05-29T21:08:53.239Z,20.40
2018-05-29T21:11:28.112Z,20.40
2018-05-29T21:13:56.831Z,20.30
2018-05-29T21:19:34.295Z,20.30
2018-05-29T21:45:07.489Z,20.00
2018-05-29T21:47:38.285Z,20.00
2018-05-29T21:50:14.724Z,20.00
2018-05-29T21:52:46.343Z,20.00
2018-05-29T22:02:53.857Z,19.90
2018-05-29T22:05:22.249Z,19.80
2018-05-29T22:07:50.078Z,19.70
2018-05-29T22:10:18.443Z,19.70
2018-05-29T22:12:47.620Z,19.70
2018-05-29T22:15:16.039Z,19.60
2018-05-29T22:20:18.051Z,19.60
2018-05-29T22:22:45.611Z,19.50
2018-05-29T22:25:14.505Z,19.50
2018-05-29T22:27:53.684Z,19.50
2018-05-29T22:30:23.526Z,19.40
2018-05-29T22:32:52.028Z,19.40
2018-05-29T22:35:21.825Z,19.40
2018-05-29T22:37:49.526Z,19.40
2018-05-29T22:40:18.117Z,19.30
2018-05-29T22:42:46.010Z,19.30
2018-05-29T22:45:14.457Z,19.20
2018-05-29T22:47:42.100Z,19.20
2018-05-29T22:50:10.085Z,19.20
2018-05-29T22:52:40.786Z,19.10
2018-05-29T22:55:08.524Z,19.10
2018-05-29T22:57:37.676Z,19.10
2018-05-29T23:00:07.383Z,19.10
2018-05-29T23:02:39.218Z,19.10
2018-05-29T23:05:08.708Z,19.00
2018-05-29T23:07:37.279Z,19.00
2018-05-29T23:10:08.722Z,19.00
2018-05-29T23:12:37.073Z,18.90
2018-05-29T23:15:04.729Z,18.90
2018-05-29T23:17:32.495Z,18.90
2018-05-29T23:20:00.846Z,18.90
2018-05-29T23:22:30.253Z,18.80
2018-05-29T23:25:15.848Z,18.70
2018-05-29T23:27:43.609Z,18.70
2018-05-29T23:30:12.905Z,18.70
2018-05-29T23:32:41.351Z,18.60
2018-05-29T23:35:09.749Z,18.60
2018-05-29T23:37:37.580Z,18.60
2018-05-29T23:40:05.273Z,18.60
2018-05-29T23:42:33.620Z,18.60
2018-05-29T23:45:01.489Z,18.50
2018-05-29T23:47:34.732Z,18.40
2018-05-29T23:50:13.458Z,18.30
2018-05-29T23:52:41.094Z,18.30
2018-05-29T23:55:09.446Z,18.30
2018-05-29T23:57:38.486Z,18.30
